sensor_id;sensor_type;location;lat;lon;timestamp;P1;durP1;ratioP1;P2;durP2;ratioP2
74660;SDS011;63191;39.566;2.654;2022-10-16T00:01:13;7.80;;;2.30;;
74660;SDS011;63191;39.566;2.654;2022-10-16T00:03:41;8.70;;;2.50;;
74660;SDS011;63191;39.566;2.654;2022-10-16T00:06:08;5.70;;;2.00;;
74660;SDS011;63191;39.566;2.654;2022-10-16T00:08:35;5.60;;;2.00;;
74660;SDS011;63191;39.566;2.654;2022-10-16T00:13:32;7.90;;;1.90;;
74660;SDS011;63191;39.566;2.654;2022-10-16T00:15:59;6.50;;;2.00;;
74660;SDS011;63191;39.566;2.654;2022-10-16T00:18:26;7.00;;;2.10;;
74660;SDS011;63191;39.566;2.654;2022-10-16T00:20:53;7.00;;;1.80;;
74660;SDS011;63191;39.566;2.654;2022-10-16T00:23:19;6.10;;;2.10;;
74660;SDS011;63191;39.566;2.654;2022-10-16T00:25:54;6.30;;;1.70;;
74660;SDS011;63191;39.566;2.654;2022-10-16T00:28:24;7.30;;;2.00;;
74660;SDS011;63191;39.566;2.654;2022-10-16T00:30:49;5.60;;;1.70;;
74660;SDS011;63191;39.566;2.654;2022-10-16T00:33:15;6.10;;;1.90;;
74660;SDS011;63191;39.566;2.654;2022-10-16T00:35:41;6.30;;;1.80;;
74660;SDS011;63191;39.566;2.654;2022-10-16T00:38:07;6.10;;;2.00;;
74660;SDS011;63191;39.566;2.654;2022-10-16T00:40:32;6.60;;;2.00;;
74660;SDS011;63191;39.566;2.654;2022-10-16T00:42:58;5.20;;;2.00;;
74660;SDS011;63191;39.566;2.654;2022-10-16T00:45:24;6.70;;;2.10;;
74660;SDS011;63191;39.566;2.654;2022-10-16T00:47:52;7.40;;;2.20;;
74660;SDS011;63191;39.566;2.654;2022-10-16T00:50:24;5.70;;;1.50;;
74660;SDS011;63191;39.566;2.654;2022-10-16T00:52:53;5.10;;;1.60;;
74660;SDS011;63191;39.566;2.654;2022-10-16T00:55:20;5.00;;;1.60;;
74660;SDS011;63191;39.566;2.654;2022-10-16T00:57:46;6.30;;;1.80;;
74660;SDS011;63191;39.566;2.654;2022-10-16T01:00:17;5.80;;;1.50;;
74660;SDS011;63191;39.566;2.654;2022-10-16T01:02:57;5.90;;;1.60;;
74660;SDS011;63191;39.566;2.654;2022-10-16T01:05:49;5.20;;;1.70;;
74660;SDS011;63191;39.566;2.654;2022-10-16T01:08:29;6.30;;;1.60;;
74660;SDS011;63191;39.566;2.654;2022-10-16T01:13:55;5.80;;;1.70;;
74660;SDS011;63191;39.566;2.654;2022-10-16T01:18:59;6.80;;;1.90;;
74660;SDS011;63191;39.566;2.654;2022-10-16T01:21:29;7.00;;;1.80;;
74660;SDS011;63191;39.566;2.654;2022-10-16T01:24:27;5.30;;;1.50;;
74660;SDS011;63191;39.566;2.654;2022-10-16T01:27:27;5.90;;;1.70;;
74660;SDS011;63191;39.566;2.654;2022-10-16T01:29:56;6.20;;;1.80;;
74660;SDS011;63191;39.566;2.654;2022-10-16T01:32:40;7.60;;;2.40;;
74660;SDS011;63191;39.566;2.654;2022-10-16T01:35:18;7.90;;;2.30;;
74660;SDS011;63191;39.566;2.654;2022-10-16T01:40:18;7.70;;;1.90;;
74660;SDS011;63191;39.566;2.654;2022-10-16T01:43:04;7.30;;;2.00;;
74660;SDS011;63191;39.566;2.654;2022-10-16T01:45:32;6.70;;;2.40;;
74660;SDS011;63191;39.566;2.654;2022-10-16T01:48:00;7.00;;;1.90;;
74660;SDS011;63191;39.566;2.654;2022-10-16T01:50:35;5.20;;;1.60;;
74660;SDS011;63191;39.566;2.654;2022-10-16T01:53:05;6.40;;;1.90;;
74660;SDS011;63191;39.566;2.654;2022-10-16T01:55:36;6.10;;;1.70;;
74660;SDS011;63191;39.566;2.654;2022-10-16T01:58:05;6.20;;;1.80;;
74660;SDS011;63191;39.566;2.654;2022-10-16T02:00:33;6.10;;;2.00;;
74660;SDS011;63191;39.566;2.654;2022-10-16T02:03:02;6.20;;;2.10;;
74660;SDS011;63191;39.566;2.654;2022-10-16T02:05:33;6.40;;;1.70;;
74660;SDS011;63191;39.566;2.654;2022-10-16T02:08:02;7.90;;;1.70;;
74660;SDS011;63191;39.566;2.654;2022-10-16T02:10:28;7.00;;;1.80;;
74660;SDS011;63191;39.566;2.654;2022-10-16T02:13:12;6.70;;;1.90;;
74660;SDS011;63191;39.566;2.654;2022-10-16T02:15:42;5.20;;;1.60;;
74660;SDS011;63191;39.566;2.654;2022-10-16T02:18:09;5.00;;;1.50;;
74660;SDS011;63191;39.566;2.654;2022-10-16T02:20:51;5.40;;;1.80;;
74660;SDS011;63191;39.566;2.654;2022-10-16T02:23:27;6.90;;;1.70;;
74660;SDS011;63191;39.566;2.654;2022-10-16T02:26:04;5.50;;;1.60;;
74660;SDS011;63191;39.566;2.654;2022-10-16T02:28:45;5.20;;;1.60;;
74660;SDS011;63191;39.566;2.654;2022-10-16T02:31:18;8.10;;;1.70;;
74660;SDS011;63191;39.566;2.654;2022-10-16T02:33:48;7.90;;;1.70;;
74660;SDS011;63191;39.566;2.654;2022-10-16T02:36:16;6.00;;;1.50;;
74660;SDS011;63191;39.566;2.654;2022-10-16T02:38:42;6.90;;;1.60;;
74660;SDS011;63191;39.566;2.654;2022-10-16T02:41:07;5.70;;;2.20;;
74660;SDS011;63191;39.566;2.654;2022-10-16T02:43:33;6.30;;;1.40;;
74660;SDS011;63191;39.566;2.654;2022-10-16T02:46:00;5.20;;;1.60;;
74660;SDS011;63191;39.566;2.654;2022-10-16T02:48:25;6.70;;;1.70;;
74660;SDS011;63191;39.566;2.654;2022-10-16T02:50:51;6.40;;;1.50;;
74660;SDS011;63191;39.566;2.654;2022-10-16T02:53:17;6.00;;;1.40;;
74660;SDS011;63191;39.566;2.654;2022-10-16T02:55:42;5.80;;;1.50;;
74660;SDS011;63191;39.566;2.654;2022-10-16T02:58:09;4.90;;;1.40;;
74660;SDS011;63191;39.566;2.654;2022-10-16T03:00:34;6.30;;;1.80;;
74660;SDS011;63191;39.566;2.654;2022-10-16T03:03:00;4.60;;;1.50;;
74660;SDS011;63191;39.566;2.654;2022-10-16T03:05:26;7.70;;;1.60;;
74660;SDS011;63191;39.566;2.654;2022-10-16T03:07:52;4.70;;;1.30;;
74660;SDS011;63191;39.566;2.654;2022-10-16T03:10:18;5.70;;;1.40;;
74660;SDS011;63191;39.566;2.654;2022-10-16T03:12:44;6.60;;;1.50;;
74660;SDS011;63191;39.566;2.654;2022-10-16T03:15:09;4.00;;;1.50;;
74660;SDS011;63191;39.566;2.654;2022-10-16T03:17:35;6.70;;;1.70;;
74660;SDS011;63191;39.566;2.654;2022-10-16T03:20:01;7.70;;;1.60;;
74660;SDS011;63191;39.566;2.654;2022-10-16T03:22:27;6.10;;;1.80;;
74660;SDS011;63191;39.566;2.654;2022-10-16T03:24:52;5.30;;;1.80;;
74660;SDS011;63191;39.566;2.654;2022-10-16T03:27:18;4.70;;;1.80;;
74660;SDS011;63191;39.566;2.654;2022-10-16T03:29:44;6.20;;;1.50;;
74660;SDS011;63191;39.566;2.654;2022-10-16T03:32:09;7.90;;;1.90;;
74660;SDS011;63191;39.566;2.654;2022-10-16T03:34:35;6.50;;;1.70;;
74660;SDS011;63191;39.566;2.654;2022-10-16T03:37:01;9.00;;;2.20;;
74660;SDS011;63191;39.566;2.654;2022-10-16T03:39:27;5.20;;;1.50;;
74660;SDS011;63191;39.566;2.654;2022-10-16T03:41:52;7.00;;;1.70;;
74660;SDS011;63191;39.566;2.654;2022-10-16T03:44:18;6.00;;;2.60;;
74660;SDS011;63191;39.566;2.654;2022-10-16T03:46:43;9.30;;;3.40;;
74660;SDS011;63191;39.566;2.654;2022-10-16T03:49:09;7.80;;;2.10;;
74660;SDS011;63191;39.566;2.654;2022-10-16T03:51:35;7.90;;;1.50;;
74660;SDS011;63191;39.566;2.654;2022-10-16T03:54:01;3.90;;;1.40;;
74660;SDS011;63191;39.566;2.654;2022-10-16T03:56:26;6.80;;;1.70;;
74660;SDS011;63191;39.566;2.654;2022-10-16T03:58:52;5.10;;;1.90;;
74660;SDS011;63191;39.566;2.654;2022-10-16T04:01:18;5.90;;;1.90;;
74660;SDS011;63191;39.566;2.654;2022-10-16T04:03:43;5.30;;;1.60;;
74660;SDS011;63191;39.566;2.654;2022-10-16T04:06:09;4.80;;;2.00;;
74660;SDS011;63191;39.566;2.654;2022-10-16T04:08:35;6.00;;;1.70;;
74660;SDS011;63191;39.566;2.654;2022-10-16T04:11:02;4.60;;;1.30;;
74660;SDS011;63191;39.566;2.654;2022-10-16T04:13:28;8.00;;;3.20;;
74660;SDS011;63191;39.566;2.654;2022-10-16T04:15:54;5.90;;;2.40;;
74660;SDS011;63191;39.566;2.654;2022-10-16T04:18:20;7.80;;;2.70;;
74660;SDS011;63191;39.566;2.654;2022-10-16T04:20:46;8.10;;;1.90;;
74660;SDS011;63191;39.566;2.654;2022-10-16T04:23:11;4.40;;;1.60;;
74660;SDS011;63191;39.566;2.654;2022-10-16T04:25:37;7.70;;;1.60;;
74660;SDS011;63191;39.566;2.654;2022-10-16T04:28:03;6.00;;;1.60;;
74660;SDS011;63191;39.566;2.654;2022-10-16T04:30:29;6.20;;;1.70;;
74660;SDS011;63191;39.566;2.654;2022-10-16T04:32:54;7.00;;;1.70;;
74660;SDS011;63191;39.566;2.654;2022-10-16T04:35:21;6.00;;;1.80;;
74660;SDS011;63191;39.566;2.654;2022-10-16T04:37:47;6.40;;;1.70;;
74660;SDS011;63191;39.566;2.654;2022-10-16T04:40:13;6.60;;;2.10;;
74660;SDS011;63191;39.566;2.654;2022-10-16T04:42:39;5.80;;;1.70;;
74660;SDS011;63191;39.566;2.654;2022-10-16T04:45:06;9.20;;;2.00;;
74660;SDS011;63191;39.566;2.654;2022-10-16T04:47:33;5.00;;;1.40;;
74660;SDS011;63191;39.566;2.654;2022-10-16T04:49:59;5.60;;;1.50;;
74660;SDS011;63191;39.566;2.654;2022-10-16T04:52:26;6.20;;;1.70;;
74660;SDS011;63191;39.566;2.654;2022-10-16T04:54:52;7.90;;;1.90;;
74660;SDS011;63191;39.566;2.654;2022-10-16T04:57:19;4.40;;;1.50;;
74660;SDS011;63191;39.566;2.654;2022-10-16T04:59:44;6.00;;;2.00;;
74660;SDS011;63191;39.566;2.654;2022-10-16T05:02:10;6.90;;;1.80;;
74660;SDS011;63191;39.566;2.654;2022-10-16T05:04:36;4.70;;;1.50;;
74660;SDS011;63191;39.566;2.654;2022-10-16T05:07:01;6.60;;;1.50;;
74660;SDS011;63191;39.566;2.654;2022-10-16T05:09:27;5.40;;;1.90;;
74660;SDS011;63191;39.566;2.654;2022-10-16T05:11:53;7.20;;;1.90;;
74660;SDS011;63191;39.566;2.654;2022-10-16T05:14:19;6.40;;;1.80;;
74660;SDS011;63191;39.566;2.654;2022-10-16T05:16:44;6.70;;;1.60;;
74660;SDS011;63191;39.566;2.654;2022-10-16T05:19:10;4.80;;;1.80;;
74660;SDS011;63191;39.566;2.654;2022-10-16T05:21:36;4.80;;;1.60;;
74660;SDS011;63191;39.566;2.654;2022-10-16T05:24:02;6.30;;;1.50;;
74660;SDS011;63191;39.566;2.654;2022-10-16T05:26:28;5.20;;;1.60;;
74660;SDS011;63191;39.566;2.654;2022-10-16T05:28:55;6.60;;;1.90;;
74660;SDS011;63191;39.566;2.654;2022-10-16T05:31:21;6.80;;;1.90;;
74660;SDS011;63191;39.566;2.654;2022-10-16T05:33:47;6.20;;;1.70;;
74660;SDS011;63191;39.566;2.654;2022-10-16T05:36:12;6.60;;;2.00;;
74660;SDS011;63191;39.566;2.654;2022-10-16T05:38:38;5.40;;;2.00;;
74660;SDS011;63191;39.566;2.654;2022-10-16T05:41:04;5.90;;;1.50;;
74660;SDS011;63191;39.566;2.654;2022-10-16T05:43:31;6.30;;;1.50;;
74660;SDS011;63191;39.566;2.654;2022-10-16T05:45:59;7.20;;;1.90;;
74660;SDS011;63191;39.566;2.654;2022-10-16T05:48:27;6.10;;;1.90;;
74660;SDS011;63191;39.566;2.654;2022-10-16T05:51:04;5.90;;;1.60;;
74660;SDS011;63191;39.566;2.654;2022-10-16T05:53:35;5.90;;;1.80;;
74660;SDS011;63191;39.566;2.654;2022-10-16T05:56:03;5.80;;;1.70;;
74660;SDS011;63191;39.566;2.654;2022-10-16T05:58:31;7.40;;;1.70;;
74660;SDS011;63191;39.566;2.654;2022-10-16T06:01:04;5.90;;;1.60;;
74660;SDS011;63191;39.566;2.654;2022-10-16T06:03:41;5.50;;;1.60;;
74660;SDS011;63191;39.566;2.654;2022-10-16T06:06:15;7.10;;;2.20;;
74660;SDS011;63191;39.566;2.654;2022-10-16T06:08:43;8.30;;;2.00;;
74660;SDS011;63191;39.566;2.654;2022-10-16T06:11:16;7.70;;;2.30;;
74660;SDS011;63191;39.566;2.654;2022-10-16T06:13:44;6.60;;;1.80;;
74660;SDS011;63191;39.566;2.654;2022-10-16T06:16:12;5.40;;;2.00;;
74660;SDS011;63191;39.566;2.654;2022-10-16T06:18:38;5.50;;;1.90;;
74660;SDS011;63191;39.566;2.654;2022-10-16T06:21:09;6.10;;;1.90;;
74660;SDS011;63191;39.566;2.654;2022-10-16T06:23:46;7.40;;;2.10;;
74660;SDS011;63191;39.566;2.654;2022-10-16T06:26:14;6.40;;;2.10;;
74660;SDS011;63191;39.566;2.654;2022-10-16T06:28:41;7.50;;;2.10;;
74660;SDS011;63191;39.566;2.654;2022-10-16T06:31:08;7.90;;;2.00;;
74660;SDS011;63191;39.566;2.654;2022-10-16T06:33:35;8.20;;;2.30;;
74660;SDS011;63191;39.566;2.654;2022-10-16T06:36:10;5.20;;;1.70;;
74660;SDS011;63191;39.566;2.654;2022-10-16T06:38:38;5.80;;;1.60;;
74660;SDS011;63191;39.566;2.654;2022-10-16T06:41:05;7.00;;;2.20;;
74660;SDS011;63191;39.566;2.654;2022-10-16T06:43:32;5.00;;;1.80;;
74660;SDS011;63191;39.566;2.654;2022-10-16T06:46:01;6.90;;;2.10;;
74660;SDS011;63191;39.566;2.654;2022-10-16T06:48:29;6.90;;;2.10;;
74660;SDS011;63191;39.566;2.654;2022-10-16T06:51:06;5.90;;;1.90;;
74660;SDS011;63191;39.566;2.654;2022-10-16T06:53:36;9.10;;;2.00;;
74660;SDS011;63191;39.566;2.654;2022-10-16T06:58:37;6.90;;;2.40;;
74660;SDS011;63191;39.566;2.654;2022-10-16T07:01:04;7.80;;;2.40;;
74660;SDS011;63191;39.566;2.654;2022-10-16T07:03:30;7.40;;;2.20;;
74660;SDS011;63191;39.566;2.654;2022-10-16T07:05:56;6.40;;;2.10;;
74660;SDS011;63191;39.566;2.654;2022-10-16T07:08:22;6.30;;;2.30;;
74660;SDS011;63191;39.566;2.654;2022-10-16T07:10:48;8.20;;;2.30;;
74660;SDS011;63191;39.566;2.654;2022-10-16T07:13:14;8.00;;;2.20;;
74660;SDS011;63191;39.566;2.654;2022-10-16T07:15:40;5.50;;;2.10;;
74660;SDS011;63191;39.566;2.654;2022-10-16T07:18:07;8.20;;;2.50;;
74660;SDS011;63191;39.566;2.654;2022-10-16T07:20:33;7.30;;;2.70;;
74660;SDS011;63191;39.566;2.654;2022-10-16T07:22:59;8.00;;;2.60;;
74660;SDS011;63191;39.566;2.654;2022-10-16T07:25:24;5.60;;;2.20;;
74660;SDS011;63191;39.566;2.654;2022-10-16T07:27:50;8.20;;;2.30;;
74660;SDS011;63191;39.566;2.654;2022-10-16T07:30:16;7.20;;;2.50;;
74660;SDS011;63191;39.566;2.654;2022-10-16T07:32:41;8.10;;;2.90;;
74660;SDS011;63191;39.566;2.654;2022-10-16T07:35:07;8.90;;;3.20;;
74660;SDS011;63191;39.566;2.654;2022-10-16T07:37:33;7.60;;;2.60;;
74660;SDS011;63191;39.566;2.654;2022-10-16T07:39:58;9.00;;;2.80;;
74660;SDS011;63191;39.566;2.654;2022-10-16T07:42:24;9.40;;;3.20;;
74660;SDS011;63191;39.566;2.654;2022-10-16T07:44:50;7.70;;;3.20;;
74660;SDS011;63191;39.566;2.654;2022-10-16T07:47:16;7.10;;;3.20;;
74660;SDS011;63191;39.566;2.654;2022-10-16T07:49:41;6.80;;;3.70;;
74660;SDS011;63191;39.566;2.654;2022-10-16T07:52:07;7.80;;;3.70;;
74660;SDS011;63191;39.566;2.654;2022-10-16T07:54:33;9.30;;;4.30;;
74660;SDS011;63191;39.566;2.654;2022-10-16T07:56:58;10.50;;;4.70;;
74660;SDS011;63191;39.566;2.654;2022-10-16T07:59:25;10.00;;;5.00;;
74660;SDS011;63191;39.566;2.654;2022-10-16T08:01:51;10.80;;;5.40;;
74660;SDS011;63191;39.566;2.654;2022-10-16T08:04:17;10.80;;;5.30;;
74660;SDS011;63191;39.566;2.654;2022-10-16T08:06:42;9.70;;;5.60;;
74660;SDS011;63191;39.566;2.654;2022-10-16T08:09:09;8.50;;;5.80;;
74660;SDS011;63191;39.566;2.654;2022-10-16T08:11:35;11.00;;;6.80;;
74660;SDS011;63191;39.566;2.654;2022-10-16T08:14:01;9.90;;;6.50;;
74660;SDS011;63191;39.566;2.654;2022-10-16T08:16:26;13.40;;;6.60;;
74660;SDS011;63191;39.566;2.654;2022-10-16T08:18:52;12.70;;;7.00;;
74660;SDS011;63191;39.566;2.654;2022-10-16T08:21:20;13.20;;;7.40;;
74660;SDS011;63191;39.566;2.654;2022-10-16T08:23:49;13.10;;;7.00;;
74660;SDS011;63191;39.566;2.654;2022-10-16T08:26:15;11.10;;;6.80;;
74660;SDS011;63191;39.566;2.654;2022-10-16T08:28:41;10.40;;;6.00;;
74660;SDS011;63191;39.566;2.654;2022-10-16T08:31:11;11.50;;;6.50;;
74660;SDS011;63191;39.566;2.654;2022-10-16T08:33:39;10.50;;;6.30;;
74660;SDS011;63191;39.566;2.654;2022-10-16T08:36:06;10.40;;;5.80;;
74660;SDS011;63191;39.566;2.654;2022-10-16T08:38:33;9.60;;;5.00;;
74660;SDS011;63191;39.566;2.654;2022-10-16T08:41:25;10.10;;;4.70;;
74660;SDS011;63191;39.566;2.654;2022-10-16T08:44:30;9.00;;;3.70;;
74660;SDS011;63191;39.566;2.654;2022-10-16T08:49:57;7.80;;;3.20;;
74660;SDS011;63191;39.566;2.654;2022-10-16T08:52:34;8.80;;;3.30;;
74660;SDS011;63191;39.566;2.654;2022-10-16T08:55:04;8.50;;;3.70;;
74660;SDS011;63191;39.566;2.654;2022-10-16T08:57:30;6.60;;;3.70;;
74660;SDS011;63191;39.566;2.654;2022-10-16T09:00:00;9.90;;;3.60;;
74660;SDS011;63191;39.566;2.654;2022-10-16T09:02:50;9.60;;;3.30;;
74660;SDS011;63191;39.566;2.654;2022-10-16T09:06:00;7.10;;;3.50;;
74660;SDS011;63191;39.566;2.654;2022-10-16T09:09:02;8.20;;;3.10;;
74660;SDS011;63191;39.566;2.654;2022-10-16T09:15:14;8.10;;;3.00;;
74660;SDS011;63191;39.566;2.654;2022-10-16T09:18:41;8.40;;;3.00;;
74660;SDS011;63191;39.566;2.654;2022-10-16T09:21:50;6.80;;;2.50;;
74660;SDS011;63191;39.566;2.654;2022-10-16T09:24:18;6.90;;;2.20;;
74660;SDS011;63191;39.566;2.654;2022-10-16T09:26:46;6.80;;;2.40;;
74660;SDS011;63191;39.566;2.654;2022-10-16T09:29:14;7.60;;;2.60;;
74660;SDS011;63191;39.566;2.654;2022-10-16T09:31:41;7.60;;;2.50;;
74660;SDS011;63191;39.566;2.654;2022-10-16T09:34:35;9.20;;;3.20;;
74660;SDS011;63191;39.566;2.654;2022-10-16T09:37:10;11.00;;;3.70;;
74660;SDS011;63191;39.566;2.654;2022-10-16T09:42:26;7.40;;;3.70;;
74660;SDS011;63191;39.566;2.654;2022-10-16T09:44:56;9.30;;;4.50;;
74660;SDS011;63191;39.566;2.654;2022-10-16T09:47:26;8.00;;;4.80;;
74660;SDS011;63191;39.566;2.654;2022-10-16T09:49:56;8.40;;;5.80;;
74660;SDS011;63191;39.566;2.654;2022-10-16T09:52:28;9.80;;;5.80;;
74660;SDS011;63191;39.566;2.654;2022-10-16T09:54:56;10.00;;;7.80;;
74660;SDS011;63191;39.566;2.654;2022-10-16T09:57:25;10.30;;;8.40;;
74660;SDS011;63191;39.566;2.654;2022-10-16T09:59:53;11.20;;;10.10;;
74660;SDS011;63191;39.566;2.654;2022-10-16T10:02:33;11.90;;;10.80;;
74660;SDS011;63191;39.566;2.654;2022-10-16T10:05:01;13.70;;;12.10;;
74660;SDS011;63191;39.566;2.654;2022-10-16T10:07:32;15.00;;;13.70;;
74660;SDS011;63191;39.566;2.654;2022-10-16T10:10:04;15.50;;;14.40;;
74660;SDS011;63191;39.566;2.654;2022-10-16T10:12:33;17.20;;;15.90;;
74660;SDS011;63191;39.566;2.654;2022-10-16T10:15:07;18.60;;;16.90;;
74660;SDS011;63191;39.566;2.654;2022-10-16T10:17:46;18.10;;;16.60;;
74660;SDS011;63191;39.566;2.654;2022-10-16T10:20:28;17.40;;;16.00;;
74660;SDS011;63191;39.566;2.654;2022-10-16T10:23:00;18.00;;;16.40;;
74660;SDS011;63191;39.566;2.654;2022-10-16T10:31:27;18.60;;;17.00;;
74660;SDS011;63191;39.566;2.654;2022-10-16T10:37:05;19.00;;;17.40;;
74660;SDS011;63191;39.566;2.654;2022-10-16T10:40:11;19.00;;;17.30;;
74660;SDS011;63191;39.566;2.654;2022-10-16T10:42:49;19.90;;;18.20;;
74660;SDS011;63191;39.566;2.654;2022-10-16T10:50:49;22.30;;;20.80;;
74660;SDS011;63191;39.566;2.654;2022-10-16T10:53:24;23.50;;;21.80;;
74660;SDS011;63191;39.566;2.654;2022-10-16T11:02:10;23.80;;;22.10;;
74660;SDS011;63191;39.566;2.654;2022-10-16T11:11:22;25.40;;;23.70;;
74660;SDS011;63191;39.566;2.654;2022-10-16T11:17:08;24.70;;;23.00;;
74660;SDS011;63191;39.566;2.654;2022-10-16T11:19:54;25.60;;;23.90;;
74660;SDS011;63191;39.566;2.654;2022-10-16T11:28:03;27.10;;;25.40;;
74660;SDS011;63191;39.566;2.654;2022-10-16T11:31:05;26.60;;;24.90;;
74660;SDS011;63191;39.566;2.654;2022-10-16T11:33:45;26.50;;;24.50;;
74660;SDS011;63191;39.566;2.654;2022-10-16T11:41:48;25.20;;;23.60;;
74660;SDS011;63191;39.566;2.654;2022-10-16T11:53:21;16.90;;;15.70;;
74660;SDS011;63191;39.566;2.654;2022-10-16T11:55:54;15.80;;;14.60;;
74660;SDS011;63191;39.566;2.654;2022-10-16T12:00:59;15.10;;;13.90;;
74660;SDS011;63191;39.566;2.654;2022-10-16T12:09:44;15.90;;;14.40;;
74660;SDS011;63191;39.566;2.654;2022-10-16T12:17:48;16.00;;;14.50;;
74660;SDS011;63191;39.566;2.654;2022-10-16T12:23:00;14.90;;;13.60;;
74660;SDS011;63191;39.566;2.654;2022-10-16T12:25:33;14.60;;;13.30;;
74660;SDS011;63191;39.566;2.654;2022-10-16T12:28:20;16.60;;;15.00;;
74660;SDS011;63191;39.566;2.654;2022-10-16T12:35:51;9.90;;;8.90;;
74660;SDS011;63191;39.566;2.654;2022-10-16T12:38:21;9.80;;;7.70;;
74660;SDS011;63191;39.566;2.654;2022-10-16T12:41:06;8.90;;;7.00;;
74660;SDS011;63191;39.566;2.654;2022-10-16T12:43:45;10.30;;;5.70;;
74660;SDS011;63191;39.566;2.654;2022-10-16T12:48:39;7.20;;;3.80;;
74660;SDS011;63191;39.566;2.654;2022-10-16T12:51:11;6.80;;;3.50;;
74660;SDS011;63191;39.566;2.654;2022-10-16T12:56:37;9.60;;;3.40;;
74660;SDS011;63191;39.566;2.654;2022-10-16T12:59:34;9.40;;;2.80;;
74660;SDS011;63191;39.566;2.654;2022-10-16T13:08:52;7.00;;;2.20;;
74660;SDS011;63191;39.566;2.654;2022-10-16T13:11:52;6.00;;;1.90;;
74660;SDS011;63191;39.566;2.654;2022-10-16T13:20:34;6.30;;;1.60;;
74660;SDS011;63191;39.566;2.654;2022-10-16T13:26:09;6.40;;;1.80;;
74660;SDS011;63191;39.566;2.654;2022-10-16T13:28:45;4.80;;;1.50;;
74660;SDS011;63191;39.566;2.654;2022-10-16T13:31:20;6.20;;;1.70;;
74660;SDS011;63191;39.566;2.654;2022-10-16T13:33:54;4.60;;;1.80;;
74660;SDS011;63191;39.566;2.654;2022-10-16T13:36:28;7.10;;;1.90;;
74660;SDS011;63191;39.566;2.654;2022-10-16T13:39:12;5.90;;;1.50;;
74660;SDS011;63191;39.566;2.654;2022-10-16T13:41:40;6.90;;;1.90;;
74660;SDS011;63191;39.566;2.654;2022-10-16T13:44:14;6.30;;;1.80;;
74660;SDS011;63191;39.566;2.654;2022-10-16T13:46:42;6.90;;;1.50;;
74660;SDS011;63191;39.566;2.654;2022-10-16T13:49:16;5.90;;;1.60;;
74660;SDS011;63191;39.566;2.654;2022-10-16T13:51:55;5.40;;;1.80;;
74660;SDS011;63191;39.566;2.654;2022-10-16T13:54:23;5.90;;;1.50;;
74660;SDS011;63191;39.566;2.654;2022-10-16T13:56:50;8.20;;;2.00;;
74660;SDS011;63191;39.566;2.654;2022-10-16T13:59:34;7.40;;;1.80;;
74660;SDS011;63191;39.566;2.654;2022-10-16T14:02:08;6.60;;;2.10;;
74660;SDS011;63191;39.566;2.654;2022-10-16T14:04:40;8.90;;;2.00;;
74660;SDS011;63191;39.566;2.654;2022-10-16T14:07:14;10.20;;;2.60;;
74660;SDS011;63191;39.566;2.654;2022-10-16T14:09:41;7.30;;;1.90;;
74660;SDS011;63191;39.566;2.654;2022-10-16T14:12:10;8.50;;;2.70;;
74660;SDS011;63191;39.566;2.654;2022-10-16T14:14:45;7.20;;;1.70;;
74660;SDS011;63191;39.566;2.654;2022-10-16T14:17:18;4.60;;;1.60;;
74660;SDS011;63191;39.566;2.654;2022-10-16T14:19:50;8.80;;;2.10;;
74660;SDS011;63191;39.566;2.654;2022-10-16T14:27:55;11.30;;;2.30;;
74660;SDS011;63191;39.566;2.654;2022-10-16T14:30:54;7.90;;;2.00;;
74660;SDS011;63191;39.566;2.654;2022-10-16T14:39:04;6.60;;;2.10;;
74660;SDS011;63191;39.566;2.654;2022-10-16T14:41:35;9.30;;;2.00;;
74660;SDS011;63191;39.566;2.654;2022-10-16T14:44:10;9.30;;;2.30;;
74660;SDS011;63191;39.566;2.654;2022-10-16T14:46:39;9.90;;;2.40;;
74660;SDS011;63191;39.566;2.654;2022-10-16T14:51:38;7.70;;;2.10;;
74660;SDS011;63191;39.566;2.654;2022-10-16T14:54:08;7.90;;;2.10;;
74660;SDS011;63191;39.566;2.654;2022-10-16T14:59:17;6.60;;;1.70;;
74660;SDS011;63191;39.566;2.654;2022-10-16T15:01:46;6.80;;;2.00;;
74660;SDS011;63191;39.566;2.654;2022-10-16T15:04:13;5.80;;;1.80;;
74660;SDS011;63191;39.566;2.654;2022-10-16T15:06:39;6.20;;;1.90;;
74660;SDS011;63191;39.566;2.654;2022-10-16T15:09:05;9.70;;;1.80;;
74660;SDS011;63191;39.566;2.654;2022-10-16T15:11:33;6.00;;;1.60;;
74660;SDS011;63191;39.566;2.654;2022-10-16T15:13:59;6.30;;;1.60;;
74660;SDS011;63191;39.566;2.654;2022-10-16T15:16:25;7.00;;;1.60;;
74660;SDS011;63191;39.566;2.654;2022-10-16T15:18:50;5.30;;;1.50;;
74660;SDS011;63191;39.566;2.654;2022-10-16T15:23:56;6.10;;;1.50;;
74660;SDS011;63191;39.566;2.654;2022-10-16T15:26:24;11.10;;;1.80;;
74660;SDS011;63191;39.566;2.654;2022-10-16T15:28:51;6.10;;;1.90;;
74660;SDS011;63191;39.566;2.654;2022-10-16T15:31:18;6.40;;;1.60;;
74660;SDS011;63191;39.566;2.654;2022-10-16T15:33:45;9.40;;;2.00;;
74660;SDS011;63191;39.566;2.654;2022-10-16T15:36:18;8.90;;;1.60;;
74660;SDS011;63191;39.566;2.654;2022-10-16T15:38:50;8.20;;;2.00;;
74660;SDS011;63191;39.566;2.654;2022-10-16T15:41:16;7.60;;;1.90;;
74660;SDS011;63191;39.566;2.654;2022-10-16T15:43:41;9.90;;;1.70;;
74660;SDS011;63191;39.566;2.654;2022-10-16T15:46:11;10.90;;;2.20;;
74660;SDS011;63191;39.566;2.654;2022-10-16T15:48:39;6.60;;;1.90;;
74660;SDS011;63191;39.566;2.654;2022-10-16T15:51:06;7.70;;;2.00;;
74660;SDS011;63191;39.566;2.654;2022-10-16T15:53:33;10.10;;;2.10;;
74660;SDS011;63191;39.566;2.654;2022-10-16T15:56:04;8.10;;;2.50;;
74660;SDS011;63191;39.566;2.654;2022-10-16T15:58:31;7.70;;;2.00;;
74660;SDS011;63191;39.566;2.654;2022-10-16T16:00:58;8.50;;;1.90;;
74660;SDS011;63191;39.566;2.654;2022-10-16T16:03:29;9.20;;;2.10;;
74660;SDS011;63191;39.566;2.654;2022-10-16T16:05:57;8.50;;;2.40;;
74660;SDS011;63191;39.566;2.654;2022-10-16T16:08:23;10.10;;;2.60;;
74660;SDS011;63191;39.566;2.654;2022-10-16T16:11:03;8.20;;;2.20;;
74660;SDS011;63191;39.566;2.654;2022-10-16T16:13:31;6.30;;;1.70;;
74660;SDS011;63191;39.566;2.654;2022-10-16T16:15:57;9.30;;;2.10;;
74660;SDS011;63191;39.566;2.654;2022-10-16T16:18:22;10.10;;;2.00;;
74660;SDS011;63191;39.566;2.654;2022-10-16T16:20:50;10.00;;;2.10;;
74660;SDS011;63191;39.566;2.654;2022-10-16T16:23:16;6.50;;;1.80;;
74660;SDS011;63191;39.566;2.654;2022-10-16T16:25:42;8.50;;;2.30;;
74660;SDS011;63191;39.566;2.654;2022-10-16T16:28:08;8.00;;;2.30;;
74660;SDS011;63191;39.566;2.654;2022-10-16T16:30:36;9.70;;;1.80;;
74660;SDS011;63191;39.566;2.654;2022-10-16T16:33:02;10.80;;;2.10;;
74660;SDS011;63191;39.566;2.654;2022-10-16T16:35:28;12.70;;;3.20;;
74660;SDS011;63191;39.566;2.654;2022-10-16T16:37:54;11.40;;;2.60;;
74660;SDS011;63191;39.566;2.654;2022-10-16T16:40:20;10.00;;;2.60;;
74660;SDS011;63191;39.566;2.654;2022-10-16T16:42:47;6.90;;;1.80;;
74660;SDS011;63191;39.566;2.654;2022-10-16T16:45:14;10.60;;;2.30;;
74660;SDS011;63191;39.566;2.654;2022-10-16T16:47:40;10.80;;;2.10;;
74660;SDS011;63191;39.566;2.654;2022-10-16T16:50:06;8.90;;;2.00;;
74660;SDS011;63191;39.566;2.654;2022-10-16T16:52:34;11.50;;;3.00;;
74660;SDS011;63191;39.566;2.654;2022-10-16T16:55:00;8.90;;;2.10;;
74660;SDS011;63191;39.566;2.654;2022-10-16T16:57:27;9.30;;;1.90;;
74660;SDS011;63191;39.566;2.654;2022-10-16T16:59:52;10.50;;;2.10;;
74660;SDS011;63191;39.566;2.654;2022-10-16T17:02:18;10.10;;;2.60;;
74660;SDS011;63191;39.566;2.654;2022-10-16T17:04:44;12.50;;;2.50;;
74660;SDS011;63191;39.566;2.654;2022-10-16T17:07:09;8.80;;;2.30;;
74660;SDS011;63191;39.566;2.654;2022-10-16T17:09:35;9.30;;;2.20;;
74660;SDS011;63191;39.566;2.654;2022-10-16T17:12:01;10.30;;;2.00;;
74660;SDS011;63191;39.566;2.654;2022-10-16T17:14:27;10.50;;;2.90;;
74660;SDS011;63191;39.566;2.654;2022-10-16T17:16:53;8.90;;;2.50;;